AGROMETEOROLOŠKI PORTAL

vinorodna pokrajina

Temelj dobrega kmetovanja

Pregled podatkov za lokacijo PODČETRTEK - ATOMSKE TOPLICE ARSO, meteorološka postaja 127

Pregled senzorjev na lokaciji

ID Ime Zadnja
vrednost
Datum in čas
meritve
(lokalni čas)
Tip
senzorja
6042 Zračni tlak (hPa) 987 hPa 25.9.2022 22:00 ARSO
2862 Sončno sevanje (W/m2) 0 W/m2 25.9.2022 22:00 ARSO
2868 Padavine (mm) 0 mm 25.9.2022 22:00 ARSO
2876 Relativna zračna vlaga (2 m) (% RH) 98 % RH 25.9.2022 22:00 ARSO
2875 Temperatura (2 m) (°C) 13 °C 25.9.2022 22:00 ARSO
2880 Smer vetra (2 m) (°) 342 ° 25.9.2022 22:00 ARSO
2881 Hitrost vetra (2 m) (km/h) 5 km/h 25.9.2022 22:00 ARSO

Pregled podatkov zadnjih 24 ur

Zap.
št.
Datum in čas
(lokalni čas)
PODČETRTEK - ATOMSKE TOPLICE ARSO
Zračni
tlak
Sončno
sevanje
Padavine Relativna
zračna
vlaga
(2
m)
Temperatura
(2
m)
Smer
vetra
(2
m)
Hitrost
vetra
(2
m)
1 25.9.2022 22:00 986,8 0 0 98 13 342 5
2 25.9.2022 21:30 987 0 0 97 13 351 2
3 25.9.2022 21:00 987 0 0 97 13 9 1
4 25.9.2022 20:30 987,1 0 0,1 96 13,1 229 0
5 25.9.2022 20:00 987,3 0 0,2 96 13,2 212 0
6 25.9.2022 19:30 987,3 0 0,1 95 13,3 334 4
7 25.9.2022 19:00 987,3 0 0,7 94 13,6 343 3
8 25.9.2022 18:30 987,3 6 0,1 93 13,7 9 2
9 25.9.2022 18:00 987,4 15 0,6 90 14,1 359 5
10 25.9.2022 17:30 987,6 31 0 88 14,5 3 4
11 25.9.2022 17:00 987,7 84 0 86 14,7 346 4
12 25.9.2022 16:30 987,9 85 0 85 14,8 348 4
13 25.9.2022 16:00 988 86 0 84 14,8 357 4
14 25.9.2022 15:30 988,2 212 0 85 14,8 351 5
15 25.9.2022 15:00 988,3 256 0 86 14,6 360 4
16 25.9.2022 14:30 988,5 186 0 87 14,4 354 2
17 25.9.2022 14:00
18 25.9.2022 13:30 988,8 116 0,2 86 13,9 360 3
19 25.9.2022 13:00 988,9 116 0,1 84 13,9 39 1
20 25.9.2022 12:30 989,2 146 0 83 14 34 2
21 25.9.2022 12:00 989,3 181 0 84 14,1 102 1
22 25.9.2022 11:30 989,5 265 0 86 13,8 110 3
23 25.9.2022 11:00 989,6 227 0 92 12,9 9 2
24 25.9.2022 10:30 989,8 155 0 95 12,4 11 2
25 25.9.2022 10:00 989,9 56 0 96 12,2 356 3
26 25.9.2022 09:30 989,7 45 0,5 97 12,1 357 2
27 25.9.2022 09:00 989,7 26 1,1 97 12 208 1
28 25.9.2022 08:30 989,8 22 0,1 97 11,9 195 1
29 25.9.2022 08:00 989,8 13 0 97 11,8 190 0
30 25.9.2022 07:30 990 1 0 96 11,8 171 1
31 25.9.2022 07:00 990,1 0 0 96 11,9 175 1
32 25.9.2022 06:30 990,2 0 0,1 95 12,1 197 0
33 25.9.2022 06:00 990,1 0 0,2 94 12,2 130 0
34 25.9.2022 05:30 990,2 0 0,5 92 12,4 149 0
35 25.9.2022 05:00 990,3 0 0,2 90 12,8 40 1
36 25.9.2022 04:30 990,2 0 0,1 86 13,1 16 1
37 25.9.2022 04:00 990,1 0 0 83 13,4 14 1
38 25.9.2022 03:30 990,1 0 0 80 13,6 23 0
39 25.9.2022 03:00 990,3 0 0 78 13,8 159 1
40 25.9.2022 02:30 990,5 0 0 77 13,9 106 1
41 25.9.2022 02:00 990,7 0 0 76 14 211 1
42 25.9.2022 01:30 990,7 0 0 77 14 161 1
43 25.9.2022 01:00 990,7 0 0 78 14,2 79 1
44 25.9.2022 00:30 990,9 0 0 77 14,4 148 1
45 25.9.2022 00:00 991 0 0 77 14,7 85 2